sensor_id;sensor_type;location;lat;lon;timestamp;P1;durP1;ratioP1;P2;durP2;ratioP2
8139;SDS011;4111;50.972;7.072;2024-03-22T00:00:03;23.87;;;17.80;;
8139;SDS011;4111;50.972;7.072;2024-03-22T00:02:29;25.77;;;17.57;;
8139;SDS011;4111;50.972;7.072;2024-03-22T00:04:55;21.40;;;16.37;;
8139;SDS011;4111;50.972;7.072;2024-03-22T00:07:20;19.73;;;15.97;;
8139;SDS011;4111;50.972;7.072;2024-03-22T00:09:46;21.20;;;16.80;;
8139;SDS011;4111;50.972;7.072;2024-03-22T00:12:11;18.70;;;16.23;;
8139;SDS011;4111;50.972;7.072;2024-03-22T00:14:37;19.43;;;16.97;;
8139;SDS011;4111;50.972;7.072;2024-03-22T00:17:02;21.60;;;16.97;;
8139;SDS011;4111;50.972;7.072;2024-03-22T00:19:28;19.60;;;17.47;;
8139;SDS011;4111;50.972;7.072;2024-03-22T00:21:53;22.60;;;17.03;;
8139;SDS011;4111;50.972;7.072;2024-03-22T00:24:19;21.37;;;17.10;;
8139;SDS011;4111;50.972;7.072;2024-03-22T00:26:44;22.67;;;17.23;;
8139;SDS011;4111;50.972;7.072;2024-03-22T00:29:10;22.90;;;16.77;;
8139;SDS011;4111;50.972;7.072;2024-03-22T00:31:35;23.50;;;16.43;;
8139;SDS011;4111;50.972;7.072;2024-03-22T00:34:01;18.80;;;15.87;;
8139;SDS011;4111;50.972;7.072;2024-03-22T00:36:26;18.93;;;16.50;;
8139;SDS011;4111;50.972;7.072;2024-03-22T00:38:51;20.77;;;16.47;;
8139;SDS011;4111;50.972;7.072;2024-03-22T00:41:17;20.43;;;16.37;;
8139;SDS011;4111;50.972;7.072;2024-03-22T00:43:42;19.27;;;16.53;;
8139;SDS011;4111;50.972;7.072;2024-03-22T00:46:08;18.00;;;15.10;;
8139;SDS011;4111;50.972;7.072;2024-03-22T00:48:34;18.83;;;15.73;;
8139;SDS011;4111;50.972;7.072;2024-03-22T00:51:00;21.97;;;16.30;;
8139;SDS011;4111;50.972;7.072;2024-03-22T00:53:26;20.33;;;15.47;;
8139;SDS011;4111;50.972;7.072;2024-03-22T00:55:52;20.33;;;16.73;;
8139;SDS011;4111;50.972;7.072;2024-03-22T00:58:18;19.40;;;15.50;;
8139;SDS011;4111;50.972;7.072;2024-03-22T01:00:44;18.73;;;15.80;;
8139;SDS011;4111;50.972;7.072;2024-03-22T01:03:10;16.47;;;14.67;;
8139;SDS011;4111;50.972;7.072;2024-03-22T01:05:36;23.83;;;15.67;;
8139;SDS011;4111;50.972;7.072;2024-03-22T01:08:01;19.80;;;14.97;;
8139;SDS011;4111;50.972;7.072;2024-03-22T01:10:27;18.97;;;15.23;;
8139;SDS011;4111;50.972;7.072;2024-03-22T01:12:52;16.93;;;14.60;;
8139;SDS011;4111;50.972;7.072;2024-03-22T01:15:18;22.17;;;15.53;;
8139;SDS011;4111;50.972;7.072;2024-03-22T01:17:43;20.83;;;15.13;;
8139;SDS011;4111;50.972;7.072;2024-03-22T01:20:09;21.40;;;14.97;;
8139;SDS011;4111;50.972;7.072;2024-03-22T01:22:35;20.43;;;14.50;;
8139;SDS011;4111;50.972;7.072;2024-03-22T01:25:02;17.50;;;14.53;;
8139;SDS011;4111;50.972;7.072;2024-03-22T01:27:28;16.27;;;13.93;;
8139;SDS011;4111;50.972;7.072;2024-03-22T01:29:53;20.13;;;15.00;;
8139;SDS011;4111;50.972;7.072;2024-03-22T01:32:19;16.07;;;14.13;;
8139;SDS011;4111;50.972;7.072;2024-03-22T01:34:44;18.10;;;14.33;;
8139;SDS011;4111;50.972;7.072;2024-03-22T01:37:10;17.60;;;14.50;;
8139;SDS011;4111;50.972;7.072;2024-03-22T01:39:35;17.47;;;13.83;;
8139;SDS011;4111;50.972;7.072;2024-03-22T01:42:01;17.20;;;14.53;;
8139;SDS011;4111;50.972;7.072;2024-03-22T01:44:31;17.77;;;14.50;;
8139;SDS011;4111;50.972;7.072;2024-03-22T01:46:57;16.87;;;14.03;;
8139;SDS011;4111;50.972;7.072;2024-03-22T01:49:25;17.73;;;13.90;;
8139;SDS011;4111;50.972;7.072;2024-03-22T01:51:51;19.00;;;14.67;;
8139;SDS011;4111;50.972;7.072;2024-03-22T01:54:17;19.20;;;14.80;;
8139;SDS011;4111;50.972;7.072;2024-03-22T01:56:45;27.10;;;14.07;;
8139;SDS011;4111;50.972;7.072;2024-03-22T01:59:11;17.67;;;14.63;;
8139;SDS011;4111;50.972;7.072;2024-03-22T02:01:37;16.50;;;14.60;;
8139;SDS011;4111;50.972;7.072;2024-03-22T02:04:04;15.93;;;13.80;;
8139;SDS011;4111;50.972;7.072;2024-03-22T02:06:30;17.73;;;14.00;;
8139;SDS011;4111;50.972;7.072;2024-03-22T02:08:56;17.47;;;14.20;;
8139;SDS011;4111;50.972;7.072;2024-03-22T02:11:23;17.50;;;14.13;;
8139;SDS011;4111;50.972;7.072;2024-03-22T02:13:49;19.87;;;13.47;;
8139;SDS011;4111;50.972;7.072;2024-03-22T02:16:14;17.17;;;13.30;;
8139;SDS011;4111;50.972;7.072;2024-03-22T02:18:40;17.97;;;14.13;;
8139;SDS011;4111;50.972;7.072;2024-03-22T02:21:05;15.53;;;13.63;;
8139;SDS011;4111;50.972;7.072;2024-03-22T02:23:34;14.83;;;12.50;;
8139;SDS011;4111;50.972;7.072;2024-03-22T02:26:01;14.97;;;12.70;;
8139;SDS011;4111;50.972;7.072;2024-03-22T02:28:27;13.80;;;11.90;;
8139;SDS011;4111;50.972;7.072;2024-03-22T02:30:53;14.30;;;12.53;;
8139;SDS011;4111;50.972;7.072;2024-03-22T02:33:18;17.00;;;12.80;;
8139;SDS011;4111;50.972;7.072;2024-03-22T02:35:46;14.10;;;12.30;;
8139;SDS011;4111;50.972;7.072;2024-03-22T02:38:12;17.07;;;12.33;;
8139;SDS011;4111;50.972;7.072;2024-03-22T02:40:37;14.47;;;12.83;;
8139;SDS011;4111;50.972;7.072;2024-03-22T02:43:03;14.93;;;11.90;;
8139;SDS011;4111;50.972;7.072;2024-03-22T02:45:29;13.43;;;12.03;;
8139;SDS011;4111;50.972;7.072;2024-03-22T02:47:56;16.50;;;11.23;;
8139;SDS011;4111;50.972;7.072;2024-03-22T02:50:21;14.23;;;11.63;;
8139;SDS011;4111;50.972;7.072;2024-03-22T02:52:48;17.60;;;12.07;;
8139;SDS011;4111;50.972;7.072;2024-03-22T02:55:14;15.83;;;12.27;;
8139;SDS011;4111;50.972;7.072;2024-03-22T02:57:39;15.93;;;11.40;;
8139;SDS011;4111;50.972;7.072;2024-03-22T03:00:05;16.63;;;11.73;;
8139;SDS011;4111;50.972;7.072;2024-03-22T03:02:31;15.30;;;13.17;;
8139;SDS011;4111;50.972;7.072;2024-03-22T03:04:57;16.47;;;11.60;;
8139;SDS011;4111;50.972;7.072;2024-03-22T03:07:23;15.70;;;11.93;;
8139;SDS011;4111;50.972;7.072;2024-03-22T03:09:51;14.87;;;11.87;;
8139;SDS011;4111;50.972;7.072;2024-03-22T03:12:16;14.97;;;11.60;;
8139;SDS011;4111;50.972;7.072;2024-03-22T03:14:42;13.90;;;11.20;;
8139;SDS011;4111;50.972;7.072;2024-03-22T03:17:07;13.83;;;11.03;;
8139;SDS011;4111;50.972;7.072;2024-03-22T03:19:33;13.63;;;11.10;;
8139;SDS011;4111;50.972;7.072;2024-03-22T03:21:58;14.00;;;10.57;;
8139;SDS011;4111;50.972;7.072;2024-03-22T03:24:24;15.60;;;10.83;;
8139;SDS011;4111;50.972;7.072;2024-03-22T03:26:49;16.47;;;11.17;;
8139;SDS011;4111;50.972;7.072;2024-03-22T03:29:15;12.53;;;10.37;;
8139;SDS011;4111;50.972;7.072;2024-03-22T03:31:40;15.57;;;11.47;;
8139;SDS011;4111;50.972;7.072;2024-03-22T03:34:06;13.83;;;10.27;;
8139;SDS011;4111;50.972;7.072;2024-03-22T03:36:31;12.60;;;10.80;;
8139;SDS011;4111;50.972;7.072;2024-03-22T03:38:57;14.40;;;11.23;;
8139;SDS011;4111;50.972;7.072;2024-03-22T03:41:22;13.07;;;10.80;;
8139;SDS011;4111;50.972;7.072;2024-03-22T03:43:48;16.60;;;11.37;;
8139;SDS011;4111;50.972;7.072;2024-03-22T03:46:13;12.20;;;10.40;;
8139;SDS011;4111;50.972;7.072;2024-03-22T03:48:39;13.23;;;11.47;;
8139;SDS011;4111;50.972;7.072;2024-03-22T03:51:05;18.13;;;11.40;;
8139;SDS011;4111;50.972;7.072;2024-03-22T03:53:30;15.60;;;11.70;;
8139;SDS011;4111;50.972;7.072;2024-03-22T03:55:56;17.90;;;11.73;;
8139;SDS011;4111;50.972;7.072;2024-03-22T03:58:21;15.27;;;11.27;;
8139;SDS011;4111;50.972;7.072;2024-03-22T04:00:47;13.50;;;11.03;;
8139;SDS011;4111;50.972;7.072;2024-03-22T04:03:13;14.33;;;11.83;;
8139;SDS011;4111;50.972;7.072;2024-03-22T04:05:39;14.57;;;10.93;;
8139;SDS011;4111;50.972;7.072;2024-03-22T04:08:04;15.47;;;11.83;;
8139;SDS011;4111;50.972;7.072;2024-03-22T04:10:31;16.37;;;11.17;;
8139;SDS011;4111;50.972;7.072;2024-03-22T04:12:57;15.07;;;11.33;;
8139;SDS011;4111;50.972;7.072;2024-03-22T04:15:22;15.70;;;11.70;;
8139;SDS011;4111;50.972;7.072;2024-03-22T04:17:48;15.33;;;11.17;;
8139;SDS011;4111;50.972;7.072;2024-03-22T04:20:13;14.27;;;11.23;;
8139;SDS011;4111;50.972;7.072;2024-03-22T04:22:39;14.03;;;10.93;;
8139;SDS011;4111;50.972;7.072;2024-03-22T04:25:04;16.33;;;11.30;;
8139;SDS011;4111;50.972;7.072;2024-03-22T04:27:30;14.03;;;10.57;;
8139;SDS011;4111;50.972;7.072;2024-03-22T04:29:56;15.27;;;10.63;;
8139;SDS011;4111;50.972;7.072;2024-03-22T04:32:21;15.20;;;10.67;;
8139;SDS011;4111;50.972;7.072;2024-03-22T04:34:47;13.53;;;10.30;;
8139;SDS011;4111;50.972;7.072;2024-03-22T04:37:13;15.40;;;11.07;;
8139;SDS011;4111;50.972;7.072;2024-03-22T04:39:39;13.43;;;10.87;;
8139;SDS011;4111;50.972;7.072;2024-03-22T04:42:06;16.47;;;10.83;;
8139;SDS011;4111;50.972;7.072;2024-03-22T04:44:32;13.43;;;9.73;;
8139;SDS011;4111;50.972;7.072;2024-03-22T04:46:58;17.43;;;10.60;;
8139;SDS011;4111;50.972;7.072;2024-03-22T04:49:23;14.97;;;10.10;;
8139;SDS011;4111;50.972;7.072;2024-03-22T04:51:49;13.50;;;10.33;;
8139;SDS011;4111;50.972;7.072;2024-03-22T04:54:14;15.10;;;10.13;;
8139;SDS011;4111;50.972;7.072;2024-03-22T04:56:40;12.37;;;9.93;;
8139;SDS011;4111;50.972;7.072;2024-03-22T04:59:05;12.57;;;9.40;;
8139;SDS011;4111;50.972;7.072;2024-03-22T05:01:31;14.60;;;10.47;;
8139;SDS011;4111;50.972;7.072;2024-03-22T05:03:56;13.10;;;10.40;;
8139;SDS011;4111;50.972;7.072;2024-03-22T05:06:22;13.63;;;9.60;;
8139;SDS011;4111;50.972;7.072;2024-03-22T05:08:47;11.73;;;9.13;;
8139;SDS011;4111;50.972;7.072;2024-03-22T05:11:13;10.93;;;9.10;;
8139;SDS011;4111;50.972;7.072;2024-03-22T05:13:38;13.30;;;10.07;;
8139;SDS011;4111;50.972;7.072;2024-03-22T05:16:05;12.07;;;10.07;;
8139;SDS011;4111;50.972;7.072;2024-03-22T05:18:31;10.97;;;9.43;;
8139;SDS011;4111;50.972;7.072;2024-03-22T05:20:57;13.73;;;10.73;;
8139;SDS011;4111;50.972;7.072;2024-03-22T05:23:22;12.73;;;9.70;;
8139;SDS011;4111;50.972;7.072;2024-03-22T05:25:48;11.57;;;10.10;;
8139;SDS011;4111;50.972;7.072;2024-03-22T05:28:13;11.90;;;9.13;;
8139;SDS011;4111;50.972;7.072;2024-03-22T05:34:29;11.50;;;10.03;;
8139;SDS011;4111;50.972;7.072;2024-03-22T05:36:55;13.63;;;9.93;;
8139;SDS011;4111;50.972;7.072;2024-03-22T05:39:20;10.40;;;9.23;;
8139;SDS011;4111;50.972;7.072;2024-03-22T05:41:46;12.33;;;10.20;;
8139;SDS011;4111;50.972;7.072;2024-03-22T05:44:11;14.73;;;10.10;;
8139;SDS011;4111;50.972;7.072;2024-03-22T05:46:37;10.60;;;9.50;;
8139;SDS011;4111;50.972;7.072;2024-03-22T05:49:02;11.67;;;9.77;;
8139;SDS011;4111;50.972;7.072;2024-03-22T05:51:28;13.83;;;10.07;;
8139;SDS011;4111;50.972;7.072;2024-03-22T05:53:56;12.20;;;9.53;;
8139;SDS011;4111;50.972;7.072;2024-03-22T05:56:22;12.47;;;9.77;;
8139;SDS011;4111;50.972;7.072;2024-03-22T05:58:48;14.47;;;9.80;;
8139;SDS011;4111;50.972;7.072;2024-03-22T06:01:13;14.23;;;9.50;;
8139;SDS011;4111;50.972;7.072;2024-03-22T06:03:39;12.47;;;9.20;;
8139;SDS011;4111;50.972;7.072;2024-03-22T06:06:04;12.03;;;9.57;;
8139;SDS011;4111;50.972;7.072;2024-03-22T06:08:30;15.00;;;9.47;;
8139;SDS011;4111;50.972;7.072;2024-03-22T06:10:59;12.90;;;9.57;;
8139;SDS011;4111;50.972;7.072;2024-03-22T06:13:25;12.93;;;9.70;;
8139;SDS011;4111;50.972;7.072;2024-03-22T06:15:50;12.87;;;9.00;;
8139;SDS011;4111;50.972;7.072;2024-03-22T06:18:16;11.63;;;8.93;;
8139;SDS011;4111;50.972;7.072;2024-03-22T06:20:42;12.97;;;8.83;;
8139;SDS011;4111;50.972;7.072;2024-03-22T06:23:08;13.30;;;9.23;;
8139;SDS011;4111;50.972;7.072;2024-03-22T06:25:34;9.83;;;8.93;;
8139;SDS011;4111;50.972;7.072;2024-03-22T06:28:00;11.73;;;8.97;;
8139;SDS011;4111;50.972;7.072;2024-03-22T06:30:26;13.07;;;9.50;;
8139;SDS011;4111;50.972;7.072;2024-03-22T06:32:52;12.07;;;9.80;;
8139;SDS011;4111;50.972;7.072;2024-03-22T06:35:18;9.60;;;8.60;;
8139;SDS011;4111;50.972;7.072;2024-03-22T06:37:44;11.43;;;9.03;;
8139;SDS011;4111;50.972;7.072;2024-03-22T06:40:10;11.80;;;9.23;;
8139;SDS011;4111;50.972;7.072;2024-03-22T06:42:36;11.93;;;9.03;;
8139;SDS011;4111;50.972;7.072;2024-03-22T06:45:02;12.23;;;9.60;;
8139;SDS011;4111;50.972;7.072;2024-03-22T06:47:28;14.67;;;9.40;;
8139;SDS011;4111;50.972;7.072;2024-03-22T06:49:53;11.87;;;8.93;;
8139;SDS011;4111;50.972;7.072;2024-03-22T06:52:19;11.90;;;9.70;;
8139;SDS011;4111;50.972;7.072;2024-03-22T06:54:45;12.63;;;9.70;;
8139;SDS011;4111;50.972;7.072;2024-03-22T06:57:12;13.05;;;10.18;;
8139;SDS011;4111;50.972;7.072;2024-03-22T06:59:37;11.77;;;9.50;;
8139;SDS011;4111;50.972;7.072;2024-03-22T07:02:03;11.67;;;9.00;;
8139;SDS011;4111;50.972;7.072;2024-03-22T07:04:29;11.93;;;9.30;;
8139;SDS011;4111;50.972;7.072;2024-03-22T07:06:54;9.83;;;7.93;;
8139;SDS011;4111;50.972;7.072;2024-03-22T07:09:20;11.83;;;8.07;;
8139;SDS011;4111;50.972;7.072;2024-03-22T07:11:46;11.97;;;8.60;;
8139;SDS011;4111;50.972;7.072;2024-03-22T07:14:11;12.97;;;8.40;;
8139;SDS011;4111;50.972;7.072;2024-03-22T07:16:37;12.90;;;8.43;;
8139;SDS011;4111;50.972;7.072;2024-03-22T07:19:02;13.37;;;8.40;;
8139;SDS011;4111;50.972;7.072;2024-03-22T07:21:28;9.30;;;7.90;;
8139;SDS011;4111;50.972;7.072;2024-03-22T07:23:55;9.70;;;8.40;;
8139;SDS011;4111;50.972;7.072;2024-03-22T07:26:20;10.90;;;7.90;;
8139;SDS011;4111;50.972;7.072;2024-03-22T07:28:46;11.87;;;8.50;;
8139;SDS011;4111;50.972;7.072;2024-03-22T07:31:12;12.70;;;8.80;;
8139;SDS011;4111;50.972;7.072;2024-03-22T07:33:37;13.87;;;9.40;;
8139;SDS011;4111;50.972;7.072;2024-03-22T07:36:05;9.73;;;8.27;;
8139;SDS011;4111;50.972;7.072;2024-03-22T07:38:31;12.93;;;8.07;;
8139;SDS011;4111;50.972;7.072;2024-03-22T07:40:57;14.47;;;8.43;;
8139;SDS011;4111;50.972;7.072;2024-03-22T07:43:22;12.97;;;8.80;;
8139;SDS011;4111;50.972;7.072;2024-03-22T07:45:47;12.50;;;8.57;;
8139;SDS011;4111;50.972;7.072;2024-03-22T07:48:13;12.97;;;9.33;;
8139;SDS011;4111;50.972;7.072;2024-03-22T07:50:39;14.07;;;9.43;;
8139;SDS011;4111;50.972;7.072;2024-03-22T07:53:04;11.23;;;8.70;;
8139;SDS011;4111;50.972;7.072;2024-03-22T07:55:29;11.73;;;8.70;;
8139;SDS011;4111;50.972;7.072;2024-03-22T07:57:55;12.37;;;8.30;;
8139;SDS011;4111;50.972;7.072;2024-03-22T08:00:23;12.50;;;9.03;;
8139;SDS011;4111;50.972;7.072;2024-03-22T08:02:50;10.90;;;8.90;;
8139;SDS011;4111;50.972;7.072;2024-03-22T08:05:16;12.77;;;8.73;;
8139;SDS011;4111;50.972;7.072;2024-03-22T08:07:42;11.10;;;9.77;;
8139;SDS011;4111;50.972;7.072;2024-03-22T08:10:09;14.73;;;9.83;;
8139;SDS011;4111;50.972;7.072;2024-03-22T08:12:35;12.77;;;9.60;;
8139;SDS011;4111;50.972;7.072;2024-03-22T08:15:00;15.73;;;10.03;;
8139;SDS011;4111;50.972;7.072;2024-03-22T08:17:26;12.77;;;9.17;;
8139;SDS011;4111;50.972;7.072;2024-03-22T08:19:51;12.13;;;9.97;;
8139;SDS011;4111;50.972;7.072;2024-03-22T08:22:17;11.70;;;10.50;;
8139;SDS011;4111;50.972;7.072;2024-03-22T08:24:43;13.07;;;10.60;;
8139;SDS011;4111;50.972;7.072;2024-03-22T08:27:08;15.73;;;11.00;;
8139;SDS011;4111;50.972;7.072;2024-03-22T08:29:34;17.53;;;11.80;;
8139;SDS011;4111;50.972;7.072;2024-03-22T08:31:59;14.90;;;11.60;;
8139;SDS011;4111;50.972;7.072;2024-03-22T08:34:25;15.40;;;11.70;;
8139;SDS011;4111;50.972;7.072;2024-03-22T08:36:50;14.10;;;11.17;;
8139;SDS011;4111;50.972;7.072;2024-03-22T08:39:15;14.70;;;11.33;;
8139;SDS011;4111;50.972;7.072;2024-03-22T08:41:41;16.47;;;9.00;;
8139;SDS011;4111;50.972;7.072;2024-03-22T08:44:06;16.63;;;10.30;;
8139;SDS011;4111;50.972;7.072;2024-03-22T08:46:32;16.20;;;11.03;;
8139;SDS011;4111;50.972;7.072;2024-03-22T08:48:58;13.63;;;10.10;;
8139;SDS011;4111;50.972;7.072;2024-03-22T08:51:23;12.63;;;10.47;;
8139;SDS011;4111;50.972;7.072;2024-03-22T08:53:49;12.80;;;11.13;;
8139;SDS011;4111;50.972;7.072;2024-03-22T08:56:14;12.30;;;11.10;;
8139;SDS011;4111;50.972;7.072;2024-03-22T08:58:40;20.03;;;10.40;;
8139;SDS011;4111;50.972;7.072;2024-03-22T09:01:05;13.73;;;11.50;;
8139;SDS011;4111;50.972;7.072;2024-03-22T09:03:31;14.53;;;10.03;;
8139;SDS011;4111;50.972;7.072;2024-03-22T09:05:57;13.17;;;10.47;;
8139;SDS011;4111;50.972;7.072;2024-03-22T09:08:23;14.40;;;11.43;;
8139;SDS011;4111;50.972;7.072;2024-03-22T09:10:48;13.47;;;10.77;;
8139;SDS011;4111;50.972;7.072;2024-03-22T09:13:14;13.27;;;10.60;;
8139;SDS011;4111;50.972;7.072;2024-03-22T09:15:39;12.67;;;10.57;;
8139;SDS011;4111;50.972;7.072;2024-03-22T09:18:05;11.63;;;10.13;;
8139;SDS011;4111;50.972;7.072;2024-03-22T09:20:30;11.97;;;10.77;;
8139;SDS011;4111;50.972;7.072;2024-03-22T09:22:56;14.80;;;10.00;;
8139;SDS011;4111;50.972;7.072;2024-03-22T09:25:23;13.47;;;8.77;;
8139;SDS011;4111;50.972;7.072;2024-03-22T09:27:49;13.00;;;9.60;;
8139;SDS011;4111;50.972;7.072;2024-03-22T09:30:15;12.63;;;8.90;;
8139;SDS011;4111;50.972;7.072;2024-03-22T09:32:41;10.67;;;7.50;;
8139;SDS011;4111;50.972;7.072;2024-03-22T09:35:07;9.17;;;6.87;;
8139;SDS011;4111;50.972;7.072;2024-03-22T09:37:33;8.70;;;6.67;;
8139;SDS011;4111;50.972;7.072;2024-03-22T09:39:59;8.07;;;6.83;;
8139;SDS011;4111;50.972;7.072;2024-03-22T09:42:24;7.70;;;6.40;;
8139;SDS011;4111;50.972;7.072;2024-03-22T09:44:51;7.97;;;6.30;;
8139;SDS011;4111;50.972;7.072;2024-03-22T09:47:17;10.73;;;5.47;;
8139;SDS011;4111;50.972;7.072;2024-03-22T09:49:43;6.13;;;5.53;;
8139;SDS011;4111;50.972;7.072;2024-03-22T09:52:15;6.87;;;5.77;;
8139;SDS011;4111;50.972;7.072;2024-03-22T09:54:44;6.63;;;4.60;;
8139;SDS011;4111;50.972;7.072;2024-03-22T09:57:13;5.20;;;4.53;;
8139;SDS011;4111;50.972;7.072;2024-03-22T09:59:41;5.60;;;5.00;;
8139;SDS011;4111;50.972;7.072;2024-03-22T10:02:09;8.40;;;3.97;;
8139;SDS011;4111;50.972;7.072;2024-03-22T10:04:38;4.33;;;3.47;;
8139;SDS011;4111;50.972;7.072;2024-03-22T10:07:04;6.20;;;4.93;;
8139;SDS011;4111;50.972;7.072;2024-03-22T10:09:29;4.43;;;3.67;;
8139;SDS011;4111;50.972;7.072;2024-03-22T10:11:56;8.00;;;3.90;;
8139;SDS011;4111;50.972;7.072;2024-03-22T10:14:22;6.10;;;4.00;;
8139;SDS011;4111;50.972;7.072;2024-03-22T10:16:53;11.80;;;3.80;;
8139;SDS011;4111;50.972;7.072;2024-03-22T10:19:19;5.30;;;4.10;;
8139;SDS011;4111;50.972;7.072;2024-03-22T10:21:46;11.43;;;4.00;;
8139;SDS011;4111;50.972;7.072;2024-03-22T10:24:28;5.40;;;4.00;;
8139;SDS011;4111;50.972;7.072;2024-03-22T10:26:54;4.37;;;3.73;;
8139;SDS011;4111;50.972;7.072;2024-03-22T10:29:20;5.63;;;3.80;;
8139;SDS011;4111;50.972;7.072;2024-03-22T10:31:47;5.87;;;3.33;;
8139;SDS011;4111;50.972;7.072;2024-03-22T10:34:14;8.83;;;3.47;;
8139;SDS011;4111;50.972;7.072;2024-03-22T10:36:40;4.93;;;4.07;;
8139;SDS011;4111;50.972;7.072;2024-03-22T10:39:06;7.70;;;4.33;;
8139;SDS011;4111;50.972;7.072;2024-03-22T10:41:33;5.10;;;3.83;;
8139;SDS011;4111;50.972;7.072;2024-03-22T10:43:59;4.97;;;4.10;;
8139;SDS011;4111;50.972;7.072;2024-03-22T10:46:29;9.50;;;4.47;;
8139;SDS011;4111;50.972;7.072;2024-03-22T10:48:56;6.57;;;4.27;;
8139;SDS011;4111;50.972;7.072;2024-03-22T10:51:23;6.20;;;4.47;;
8139;SDS011;4111;50.972;7.072;2024-03-22T10:53:52;6.13;;;4.63;;
8139;SDS011;4111;50.972;7.072;2024-03-22T10:56:19;7.80;;;4.17;;
8139;SDS011;4111;50.972;7.072;2024-03-22T10:58:47;6.60;;;4.83;;
8139;SDS011;4111;50.972;7.072;2024-03-22T11:01:22;7.80;;;4.57;;
8139;SDS011;4111;50.972;7.072;2024-03-22T11:03:48;9.50;;;5.00;;
8139;SDS011;4111;50.972;7.072;2024-03-22T11:06:17;6.30;;;4.80;;
8139;SDS011;4111;50.972;7.072;2024-03-22T11:08:49;6.57;;;4.87;;
8139;SDS011;4111;50.972;7.072;2024-03-22T11:11:15;6.87;;;4.77;;
8139;SDS011;4111;50.972;7.072;2024-03-22T11:13:43;8.10;;;5.47;;
8139;SDS011;4111;50.972;7.072;2024-03-22T11:16:09;10.17;;;5.20;;
8139;SDS011;4111;50.972;7.072;2024-03-22T11:18:35;10.30;;;5.27;;
8139;SDS011;4111;50.972;7.072;2024-03-22T11:21:00;8.20;;;5.70;;
8139;SDS011;4111;50.972;7.072;2024-03-22T11:23:26;6.87;;;5.77;;
8139;SDS011;4111;50.972;7.072;2024-03-22T11:25:51;10.50;;;6.77;;
8139;SDS011;4111;50.972;7.072;2024-03-22T11:28:17;9.10;;;6.30;;
8139;SDS011;4111;50.972;7.072;2024-03-22T11:30:44;9.57;;;5.83;;
8139;SDS011;4111;50.972;7.072;2024-03-22T11:33:09;8.17;;;6.30;;
8139;SDS011;4111;50.972;7.072;2024-03-22T11:35:35;9.33;;;7.30;;
8139;SDS011;4111;50.972;7.072;2024-03-22T11:38:01;7.53;;;6.73;;
8139;SDS011;4111;50.972;7.072;2024-03-22T11:40:26;9.80;;;6.30;;
8139;SDS011;4111;50.972;7.072;2024-03-22T11:42:55;8.50;;;6.90;;
8139;SDS011;4111;50.972;7.072;2024-03-22T11:45:22;8.40;;;7.57;;
8139;SDS011;4111;50.972;7.072;2024-03-22T11:47:49;13.30;;;8.10;;
8139;SDS011;4111;50.972;7.072;2024-03-22T11:50:15;10.10;;;7.10;;
8139;SDS011;4111;50.972;7.072;2024-03-22T11:52:41;9.73;;;6.57;;
8139;SDS011;4111;50.972;7.072;2024-03-22T11:55:07;8.93;;;7.33;;
8139;SDS011;4111;50.972;7.072;2024-03-22T11:57:33;8.37;;;7.37;;
8139;SDS011;4111;50.972;7.072;2024-03-22T11:59:59;11.20;;;7.77;;
8139;SDS011;4111;50.972;7.072;2024-03-22T12:02:25;13.23;;;8.37;;
8139;SDS011;4111;50.972;7.072;2024-03-22T12:04:51;8.73;;;7.43;;
8139;SDS011;4111;50.972;7.072;2024-03-22T12:07:17;9.37;;;6.80;;
8139;SDS011;4111;50.972;7.072;2024-03-22T12:09:43;7.60;;;6.90;;
8139;SDS011;4111;50.972;7.072;2024-03-22T12:12:09;9.47;;;7.20;;
8139;SDS011;4111;50.972;7.072;2024-03-22T12:14:36;8.10;;;6.80;;
8139;SDS011;4111;50.972;7.072;2024-03-22T12:17:02;8.83;;;7.50;;
8139;SDS011;4111;50.972;7.072;2024-03-22T12:19:28;9.77;;;7.73;;
8139;SDS011;4111;50.972;7.072;2024-03-22T12:21:54;8.23;;;7.43;;
8139;SDS011;4111;50.972;7.072;2024-03-22T12:24:19;8.63;;;7.43;;
8139;SDS011;4111;50.972;7.072;2024-03-22T12:26:45;9.30;;;7.30;;
8139;SDS011;4111;50.972;7.072;2024-03-22T12:29:12;7.90;;;7.10;;
8139;SDS011;4111;50.972;7.072;2024-03-22T12:31:38;8.90;;;6.83;;
8139;SDS011;4111;50.972;7.072;2024-03-22T12:34:03;10.70;;;8.23;;
8139;SDS011;4111;50.972;7.072;2024-03-22T12:36:29;8.70;;;7.80;;
8139;SDS011;4111;50.972;7.072;2024-03-22T12:38:54;8.43;;;7.53;;
8139;SDS011;4111;50.972;7.072;2024-03-22T12:41:20;9.43;;;7.30;;
8139;SDS011;4111;50.972;7.072;2024-03-22T12:43:45;11.80;;;7.87;;
8139;SDS011;4111;50.972;7.072;2024-03-22T12:46:11;9.47;;;6.73;;
8139;SDS011;4111;50.972;7.072;2024-03-22T12:48:36;10.67;;;6.93;;
8139;SDS011;4111;50.972;7.072;2024-03-22T12:51:02;7.97;;;7.17;;
8139;SDS011;4111;50.972;7.072;2024-03-22T12:53:28;13.50;;;8.27;;
8139;SDS011;4111;50.972;7.072;2024-03-22T12:55:53;9.27;;;7.63;;
8139;SDS011;4111;50.972;7.072;2024-03-22T12:58:19;10.07;;;8.13;;
8139;SDS011;4111;50.972;7.072;2024-03-22T13:00:44;8.57;;;7.50;;
8139;SDS011;4111;50.972;7.072;2024-03-22T13:03:10;9.30;;;7.10;;
8139;SDS011;4111;50.972;7.072;2024-03-22T13:05:37;8.30;;;7.33;;
8139;SDS011;4111;50.972;7.072;2024-03-22T13:08:02;10.13;;;7.83;;
8139;SDS011;4111;50.972;7.072;2024-03-22T13:10:28;10.20;;;7.43;;
8139;SDS011;4111;50.972;7.072;2024-03-22T13:12:53;7.93;;;7.13;;
8139;SDS011;4111;50.972;7.072;2024-03-22T13:15:19;10.20;;;7.40;;
8139;SDS011;4111;50.972;7.072;2024-03-22T13:17:44;10.27;;;7.80;;
8139;SDS011;4111;50.972;7.072;2024-03-22T13:20:10;9.40;;;6.93;;
8139;SDS011;4111;50.972;7.072;2024-03-22T13:22:37;7.07;;;6.37;;
8139;SDS011;4111;50.972;7.072;2024-03-22T13:25:04;8.83;;;6.10;;
8139;SDS011;4111;50.972;7.072;2024-03-22T13:27:32;13.70;;;6.93;;
8139;SDS011;4111;50.972;7.072;2024-03-22T13:29:59;11.17;;;7.43;;
8139;SDS011;4111;50.972;7.072;2024-03-22T13:32:25;15.60;;;8.03;;
8139;SDS011;4111;50.972;7.072;2024-03-22T13:34:51;11.30;;;7.17;;
8139;SDS011;4111;50.972;7.072;2024-03-22T13:37:16;11.30;;;7.60;;
8139;SDS011;4111;50.972;7.072;2024-03-22T13:39:42;15.20;;;7.57;;
8139;SDS011;4111;50.972;7.072;2024-03-22T13:42:07;10.37;;;8.13;;
8139;SDS011;4111;50.972;7.072;2024-03-22T13:44:34;14.57;;;8.13;;
8139;SDS011;4111;50.972;7.072;2024-03-22T13:46:59;11.20;;;7.73;;
8139;SDS011;4111;50.972;7.072;2024-03-22T13:49:25;10.27;;;7.73;;
8139;SDS011;4111;50.972;7.072;2024-03-22T13:51:51;10.30;;;7.87;;
8139;SDS011;4111;50.972;7.072;2024-03-22T13:54:16;16.13;;;8.63;;
8139;SDS011;4111;50.972;7.072;2024-03-22T13:56:42;18.53;;;9.03;;
8139;SDS011;4111;50.972;7.072;2024-03-22T13:59:08;12.37;;;9.13;;
8139;SDS011;4111;50.972;7.072;2024-03-22T14:01:34;11.00;;;9.30;;
8139;SDS011;4111;50.972;7.072;2024-03-22T14:04:01;11.47;;;9.27;;
8139;SDS011;4111;50.972;7.072;2024-03-22T14:06:28;12.90;;;9.73;;
8139;SDS011;4111;50.972;7.072;2024-03-22T14:08:55;12.83;;;9.33;;
8139;SDS011;4111;50.972;7.072;2024-03-22T14:11:26;11.93;;;8.93;;
8139;SDS011;4111;50.972;7.072;2024-03-22T14:13:58;11.13;;;10.00;;
8139;SDS011;4111;50.972;7.072;2024-03-22T14:16:24;15.37;;;8.93;;
8139;SDS011;4111;50.972;7.072;2024-03-22T14:18:50;10.20;;;9.27;;
8139;SDS011;4111;50.972;7.072;2024-03-22T14:21:16;11.13;;;10.07;;
8139;SDS011;4111;50.972;7.072;2024-03-22T14:23:48;10.87;;;9.70;;
8139;SDS011;4111;50.972;7.072;2024-03-22T14:26:15;11.57;;;9.40;;
8139;SDS011;4111;50.972;7.072;2024-03-22T14:28:43;11.17;;;9.53;;
8139;SDS011;4111;50.972;7.072;2024-03-22T14:31:09;11.90;;;10.33;;
8139;SDS011;4111;50.972;7.072;2024-03-22T14:33:36;12.90;;;10.07;;
8139;SDS011;4111;50.972;7.072;2024-03-22T14:36:02;17.53;;;9.80;;
8139;SDS011;4111;50.972;7.072;2024-03-22T14:38:29;12.53;;;9.90;;
8139;SDS011;4111;50.972;7.072;2024-03-22T14:40:55;11.77;;;10.43;;
8139;SDS011;4111;50.972;7.072;2024-03-22T14:43:24;14.07;;;10.63;;
8139;SDS011;4111;50.972;7.072;2024-03-22T14:45:51;15.13;;;10.43;;
8139;SDS011;4111;50.972;7.072;2024-03-22T14:48:27;16.93;;;10.50;;
8139;SDS011;4111;50.972;7.072;2024-03-22T14:50:53;13.03;;;10.63;;
8139;SDS011;4111;50.972;7.072;2024-03-22T14:53:19;11.20;;;10.00;;